sensor_id;sensor_type;location;lat;lon;timestamp;pressure;altitude;pressure_sealevel;temperature;humidity
20027;BME280;10174;42.688;23.344;2023-07-28T00:00:24;95405.66;;;15.40;65.85
20027;BME280;10174;42.688;23.344;2023-07-28T00:02:49;95407.78;;;15.43;65.96
20027;BME280;10174;42.688;23.344;2023-07-28T00:05:14;95400.69;;;15.28;67.80
20027;BME280;10174;42.688;23.344;2023-07-28T00:07:40;95398.34;;;15.22;67.96
20027;BME280;10174;42.688;23.344;2023-07-28T00:10:05;95406.06;;;15.09;68.70
20027;BME280;10174;42.688;23.344;2023-07-28T00:12:31;95400.19;;;15.02;69.06
20027;BME280;10174;42.688;23.344;2023-07-28T00:14:56;95329.63;;;14.50;69.51
20027;BME280;10174;42.688;23.344;2023-07-28T00:17:22;95379.09;;;14.80;69.38
20027;BME280;10174;42.688;23.344;2023-07-28T00:19:47;95404.34;;;14.94;69.74
20027;BME280;10174;42.688;23.344;2023-07-28T00:22:12;95401.03;;;14.78;70.26
20027;BME280;10174;42.688;23.344;2023-07-28T00:24:38;95394.50;;;14.79;69.34
20027;BME280;10174;42.688;23.344;2023-07-28T00:27:04;95403.53;;;14.94;69.00
20027;BME280;10174;42.688;23.344;2023-07-28T00:29:29;95397.09;;;14.90;69.92
20027;BME280;10174;42.688;23.344;2023-07-28T00:31:55;95370.88;;;14.66;70.50
20027;BME280;10174;42.688;23.344;2023-07-28T00:34:20;95396.63;;;14.83;70.11
20027;BME280;10174;42.688;23.344;2023-07-28T00:36:45;95375.53;;;14.85;68.67
20027;BME280;10174;42.688;23.344;2023-07-28T00:39:11;95362.13;;;14.74;68.36
20027;BME280;10174;42.688;23.344;2023-07-28T00:41:36;95370.72;;;14.76;68.79
20027;BME280;10174;42.688;23.344;2023-07-28T00:44:02;95381.84;;;14.75;69.78
20027;BME280;10174;42.688;23.344;2023-07-28T00:46:27;95338.72;;;14.35;70.34
20027;BME280;10174;42.688;23.344;2023-07-28T00:48:53;95401.13;;;14.68;69.25
20027;BME280;10174;42.688;23.344;2023-07-28T00:51:18;95385.38;;;14.46;68.98
20027;BME280;10174;42.688;23.344;2023-07-28T00:53:44;95386.38;;;14.55;68.65
20027;BME280;10174;42.688;23.344;2023-07-28T00:56:10;95370.47;;;14.49;68.69
20027;BME280;10174;42.688;23.344;2023-07-28T00:58:36;95382.81;;;14.60;68.93
20027;BME280;10174;42.688;23.344;2023-07-28T01:01:01;95402.47;;;14.71;68.70
20027;BME280;10174;42.688;23.344;2023-07-28T01:03:27;95407.91;;;14.66;69.09
20027;BME280;10174;42.688;23.344;2023-07-28T01:05:59;95404.44;;;14.60;69.13
20027;BME280;10174;42.688;23.344;2023-07-28T01:11:01;95396.75;;;14.43;69.59
20027;BME280;10174;42.688;23.344;2023-07-28T01:13:27;95407.59;;;14.38;69.76
20027;BME280;10174;42.688;23.344;2023-07-28T01:15:53;95400.41;;;14.28;69.94
20027;BME280;10174;42.688;23.344;2023-07-28T01:18:18;95287.03;;;13.59;69.79
20027;BME280;10174;42.688;23.344;2023-07-28T01:20:44;95374.09;;;14.10;69.89
20027;BME280;10174;42.688;23.344;2023-07-28T01:23:20;95361.81;;;13.93;69.65
20027;BME280;10174;42.688;23.344;2023-07-28T01:25:58;95405.84;;;14.23;69.51
20027;BME280;10174;42.688;23.344;2023-07-28T01:28:29;95394.09;;;14.08;69.42
20027;BME280;10174;42.688;23.344;2023-07-28T01:30:55;95312.34;;;13.63;69.32
20027;BME280;10174;42.688;23.344;2023-07-28T01:33:20;95409.09;;;14.25;69.68
20027;BME280;10174;42.688;23.344;2023-07-28T01:35:46;95324.69;;;13.75;69.44
20027;BME280;10174;42.688;23.344;2023-07-28T01:38:11;95388.91;;;14.12;69.29
20027;BME280;10174;42.688;23.344;2023-07-28T01:40:38;95407.81;;;14.17;68.81
20027;BME280;10174;42.688;23.344;2023-07-28T01:43:03;95403.75;;;14.15;68.92
20027;BME280;10174;42.688;23.344;2023-07-28T01:45:28;95406.97;;;14.17;70.55
20027;BME280;10174;42.688;23.344;2023-07-28T01:47:54;95412.78;;;14.00;72.04
20027;BME280;10174;42.688;23.344;2023-07-28T01:50:19;95391.03;;;13.86;72.34
20027;BME280;10174;42.688;23.344;2023-07-28T01:52:45;95399.16;;;13.81;72.75
20027;BME280;10174;42.688;23.344;2023-07-28T01:55:10;95402.44;;;13.78;73.32
20027;BME280;10174;42.688;23.344;2023-07-28T01:57:39;95381.00;;;13.52;73.59
20027;BME280;10174;42.688;23.344;2023-07-28T02:00:06;95402.03;;;13.55;74.36
20027;BME280;10174;42.688;23.344;2023-07-28T02:02:31;95394.03;;;13.40;74.89
20027;BME280;10174;42.688;23.344;2023-07-28T02:04:57;95323.34;;;12.88;75.09
20027;BME280;10174;42.688;23.344;2023-07-28T02:07:22;95404.28;;;13.43;75.08
20027;BME280;10174;42.688;23.344;2023-07-28T02:09:48;95374.13;;;13.20;75.13
20027;BME280;10174;42.688;23.344;2023-07-28T02:12:13;95397.81;;;13.28;75.60
20027;BME280;10174;42.688;23.344;2023-07-28T02:14:38;95389.81;;;13.18;75.67
20027;BME280;10174;42.688;23.344;2023-07-28T02:17:04;95374.50;;;13.03;76.19
20027;BME280;10174;42.688;23.344;2023-07-28T02:19:29;95396.03;;;13.13;76.23
20027;BME280;10174;42.688;23.344;2023-07-28T02:21:55;95366.47;;;12.88;76.92
20027;BME280;10174;42.688;23.344;2023-07-28T02:24:20;95420.84;;;13.10;77.12
20027;BME280;10174;42.688;23.344;2023-07-28T02:26:45;95412.78;;;13.10;77.28
20027;BME280;10174;42.688;23.344;2023-07-28T02:29:11;95332.38;;;12.52;77.18
20027;BME280;10174;42.688;23.344;2023-07-28T02:31:36;95415.75;;;13.04;77.23
20027;BME280;10174;42.688;23.344;2023-07-28T02:34:01;95396.66;;;12.90;77.43
20027;BME280;10174;42.688;23.344;2023-07-28T02:36:27;95409.31;;;12.99;77.38
20027;BME280;10174;42.688;23.344;2023-07-28T02:38:52;95405.03;;;12.88;77.76
20027;BME280;10174;42.688;23.344;2023-07-28T02:41:18;95382.75;;;12.57;78.18
20027;BME280;10174;42.688;23.344;2023-07-28T02:43:43;95421.78;;;12.80;78.84
20027;BME280;10174;42.688;23.344;2023-07-28T02:46:08;95421.22;;;12.83;78.64
20027;BME280;10174;42.688;23.344;2023-07-28T02:48:34;95394.59;;;12.66;78.57
20027;BME280;10174;42.688;23.344;2023-07-28T02:50:59;95382.47;;;12.53;78.77
20027;BME280;10174;42.688;23.344;2023-07-28T02:53:24;95384.09;;;12.54;78.90
20027;BME280;10174;42.688;23.344;2023-07-28T02:55:50;95410.50;;;12.68;78.95
20027;BME280;10174;42.688;23.344;2023-07-28T02:58:15;95412.63;;;12.65;78.88
20027;BME280;10174;42.688;23.344;2023-07-28T03:00:41;95406.69;;;12.69;78.92
20027;BME280;10174;42.688;23.344;2023-07-28T03:03:08;95376.56;;;12.51;78.85
20027;BME280;10174;42.688;23.344;2023-07-28T03:05:37;95404.03;;;12.53;78.95
20027;BME280;10174;42.688;23.344;2023-07-28T03:08:03;95415.59;;;12.64;79.25
20027;BME280;10174;42.688;23.344;2023-07-28T03:10:29;95406.72;;;12.53;78.97
20027;BME280;10174;42.688;23.344;2023-07-28T03:12:55;95394.63;;;12.51;78.79
20027;BME280;10174;42.688;23.344;2023-07-28T03:15:21;95402.44;;;12.52;78.91
20027;BME280;10174;42.688;23.344;2023-07-28T03:17:47;95329.28;;;11.99;79.14
20027;BME280;10174;42.688;23.344;2023-07-28T03:20:13;95430.72;;;12.60;79.11
20027;BME280;10174;42.688;23.344;2023-07-28T03:22:38;95425.06;;;12.56;79.13
20027;BME280;10174;42.688;23.344;2023-07-28T03:25:04;95356.19;;;12.14;79.31
20027;BME280;10174;42.688;23.344;2023-07-28T03:27:29;95408.09;;;12.51;79.08
20027;BME280;10174;42.688;23.344;2023-07-28T03:29:55;95394.09;;;12.43;79.19
20027;BME280;10174;42.688;23.344;2023-07-28T03:32:20;95422.06;;;12.68;78.49
20027;BME280;10174;42.688;23.344;2023-07-28T03:34:45;95375.53;;;12.32;78.58
20027;BME280;10174;42.688;23.344;2023-07-28T03:37:11;95432.59;;;12.59;79.03
20027;BME280;10174;42.688;23.344;2023-07-28T03:39:36;95350.78;;;12.09;78.90
20027;BME280;10174;42.688;23.344;2023-07-28T03:42:02;95442.81;;;12.62;79.45
20027;BME280;10174;42.688;23.344;2023-07-28T03:44:28;95433.41;;;12.65;79.20
20027;BME280;10174;42.688;23.344;2023-07-28T03:46:53;95436.91;;;12.71;79.33
20027;BME280;10174;42.688;23.344;2023-07-28T03:49:19;95439.81;;;12.79;79.20
20027;BME280;10174;42.688;23.344;2023-07-28T03:51:44;95352.88;;;12.38;78.49
20027;BME280;10174;42.688;23.344;2023-07-28T03:54:09;95444.09;;;12.96;78.66
20027;BME280;10174;42.688;23.344;2023-07-28T03:56:35;95442.75;;;12.98;78.76
20027;BME280;10174;42.688;23.344;2023-07-28T03:59:00;95399.63;;;12.88;76.98
20027;BME280;10174;42.688;23.344;2023-07-28T04:01:25;95404.16;;;13.03;76.40
20027;BME280;10174;42.688;23.344;2023-07-28T04:03:51;95431.81;;;13.29;75.57
20027;BME280;10174;42.688;23.344;2023-07-28T04:06:16;95431.81;;;13.29;75.54
20027;BME280;10174;42.688;23.344;2023-07-28T04:08:42;95414.63;;;13.15;75.19
20027;BME280;10174;42.688;23.344;2023-07-28T04:11:07;95420.03;;;13.15;75.58
20027;BME280;10174;42.688;23.344;2023-07-28T04:13:33;95435.63;;;13.23;75.44
20027;BME280;10174;42.688;23.344;2023-07-28T04:15:59;95421.06;;;13.24;75.23
20027;BME280;10174;42.688;23.344;2023-07-28T04:18:24;95446.91;;;13.46;75.04
20027;BME280;10174;42.688;23.344;2023-07-28T04:20:50;95427.47;;;13.44;74.52
20027;BME280;10174;42.688;23.344;2023-07-28T04:23:15;95369.31;;;13.17;74.55
20027;BME280;10174;42.688;23.344;2023-07-28T04:25:40;95424.75;;;13.49;73.98
20027;BME280;10174;42.688;23.344;2023-07-28T04:28:06;95409.69;;;13.38;73.85
20027;BME280;10174;42.688;23.344;2023-07-28T04:30:31;95441.13;;;13.63;73.92
20027;BME280;10174;42.688;23.344;2023-07-28T04:32:57;95454.34;;;13.64;73.94
20027;BME280;10174;42.688;23.344;2023-07-28T04:35:22;95436.84;;;13.57;73.91
20027;BME280;10174;42.688;23.344;2023-07-28T04:37:47;95448.88;;;13.75;73.93
20027;BME280;10174;42.688;23.344;2023-07-28T04:40:13;95441.25;;;13.87;73.19
20027;BME280;10174;42.688;23.344;2023-07-28T04:42:39;95437.50;;;13.83;73.22
20027;BME280;10174;42.688;23.344;2023-07-28T04:45:04;95435.84;;;13.87;72.92
20027;BME280;10174;42.688;23.344;2023-07-28T04:47:30;95427.84;;;13.71;72.71
20027;BME280;10174;42.688;23.344;2023-07-28T04:49:55;95439.41;;;13.82;73.02
20027;BME280;10174;42.688;23.344;2023-07-28T04:52:21;95445.53;;;13.88;72.76
20027;BME280;10174;42.688;23.344;2023-07-28T04:54:46;95439.13;;;13.79;72.56
20027;BME280;10174;42.688;23.344;2023-07-28T04:57:12;95450.38;;;13.96;71.91
20027;BME280;10174;42.688;23.344;2023-07-28T04:59:37;95443.91;;;13.92;72.27
20027;BME280;10174;42.688;23.344;2023-07-28T05:02:03;95452.00;;;13.97;72.13
20027;BME280;10174;42.688;23.344;2023-07-28T05:04:28;95453.50;;;14.08;71.28
20027;BME280;10174;42.688;23.344;2023-07-28T05:06:54;95410.91;;;14.00;71.17
20027;BME280;10174;42.688;23.344;2023-07-28T05:09:19;95454.00;;;14.16;70.34
20027;BME280;10174;42.688;23.344;2023-07-28T05:11:45;95432.97;;;14.07;70.46
20027;BME280;10174;42.688;23.344;2023-07-28T05:14:10;95425.22;;;14.01;70.72
20027;BME280;10174;42.688;23.344;2023-07-28T05:16:36;95443.66;;;14.28;70.39
20027;BME280;10174;42.688;23.344;2023-07-28T05:19:01;95453.59;;;14.33;69.16
20027;BME280;10174;42.688;23.344;2023-07-28T05:21:26;95421.03;;;14.19;69.11
20027;BME280;10174;42.688;23.344;2023-07-28T05:23:52;95430.34;;;14.37;68.40
20027;BME280;10174;42.688;23.344;2023-07-28T05:26:17;95439.25;;;14.37;68.21
20027;BME280;10174;42.688;23.344;2023-07-28T05:28:43;95430.06;;;14.33;68.41
20027;BME280;10174;42.688;23.344;2023-07-28T05:31:08;95449.97;;;14.48;67.82
20027;BME280;10174;42.688;23.344;2023-07-28T05:33:33;95447.69;;;14.60;67.95
20027;BME280;10174;42.688;23.344;2023-07-28T05:36:03;95426.94;;;14.50;67.99
20027;BME280;10174;42.688;23.344;2023-07-28T05:38:29;95408.78;;;14.56;67.84
20027;BME280;10174;42.688;23.344;2023-07-28T05:41:02;95442.56;;;14.88;66.83
20027;BME280;10174;42.688;23.344;2023-07-28T05:43:29;95435.66;;;15.01;66.82
20027;BME280;10174;42.688;23.344;2023-07-28T05:45:56;95439.00;;;15.17;65.83
20027;BME280;10174;42.688;23.344;2023-07-28T05:48:21;95432.53;;;15.12;66.20
20027;BME280;10174;42.688;23.344;2023-07-28T05:50:47;95434.03;;;15.24;66.58
20027;BME280;10174;42.688;23.344;2023-07-28T05:53:13;95434.72;;;15.35;66.70
20027;BME280;10174;42.688;23.344;2023-07-28T05:55:39;95423.31;;;15.38;66.07
20027;BME280;10174;42.688;23.344;2023-07-28T05:58:04;95426.41;;;15.50;65.64
20027;BME280;10174;42.688;23.344;2023-07-28T06:00:30;95429.81;;;15.56;65.19
20027;BME280;10174;42.688;23.344;2023-07-28T06:02:55;95420.91;;;15.74;64.96
20027;BME280;10174;42.688;23.344;2023-07-28T06:05:21;95404.22;;;15.67;64.63
20027;BME280;10174;42.688;23.344;2023-07-28T06:07:46;95428.19;;;15.98;64.38
20027;BME280;10174;42.688;23.344;2023-07-28T06:10:12;95424.94;;;16.15;63.95
20027;BME280;10174;42.688;23.344;2023-07-28T06:12:37;95404.91;;;16.30;64.02
20027;BME280;10174;42.688;23.344;2023-07-28T06:15:03;95418.97;;;16.32;63.30
20027;BME280;10174;42.688;23.344;2023-07-28T06:17:28;95310.63;;;15.80;63.37
20027;BME280;10174;42.688;23.344;2023-07-28T06:19:54;95326.94;;;16.08;62.21
20027;BME280;10174;42.688;23.344;2023-07-28T06:22:20;95364.59;;;16.70;61.20
20027;BME280;10174;42.688;23.344;2023-07-28T06:24:45;95414.81;;;17.65;58.34
20027;BME280;10174;42.688;23.344;2023-07-28T06:27:11;95392.06;;;18.65;55.33
20027;BME280;10174;42.688;23.344;2023-07-28T06:29:36;95394.69;;;19.85;51.72
20027;BME280;10174;42.688;23.344;2023-07-28T06:32:02;95408.13;;;20.17;49.55
20027;BME280;10174;42.688;23.344;2023-07-28T06:34:27;95384.03;;;20.36;49.68
20027;BME280;10174;42.688;23.344;2023-07-28T06:36:53;95392.72;;;20.21;49.93
20027;BME280;10174;42.688;23.344;2023-07-28T06:39:19;95393.53;;;20.21;49.59
20027;BME280;10174;42.688;23.344;2023-07-28T06:41:44;95324.56;;;19.51;49.90
20027;BME280;10174;42.688;23.344;2023-07-28T06:44:09;95406.50;;;19.72;50.62
20027;BME280;10174;42.688;23.344;2023-07-28T06:46:35;95302.50;;;18.37;52.21
20027;BME280;10174;42.688;23.344;2023-07-28T06:49:00;95410.44;;;18.91;53.27
20027;BME280;10174;42.688;23.344;2023-07-28T06:51:26;95387.53;;;18.92;52.98
20027;BME280;10174;42.688;23.344;2023-07-28T06:53:51;95318.41;;;18.61;52.51
20027;BME280;10174;42.688;23.344;2023-07-28T06:56:17;95407.19;;;19.20;52.22
20027;BME280;10174;42.688;23.344;2023-07-28T06:58:42;95401.31;;;19.35;52.41
20027;BME280;10174;42.688;23.344;2023-07-28T07:01:08;95401.56;;;19.83;51.22
20027;BME280;10174;42.688;23.344;2023-07-28T07:03:38;95379.84;;;19.43;51.94
20027;BME280;10174;42.688;23.344;2023-07-28T07:06:04;95395.03;;;19.26;52.23
20027;BME280;10174;42.688;23.344;2023-07-28T07:08:29;95416.13;;;19.12;52.85
20027;BME280;10174;42.688;23.344;2023-07-28T07:10:55;95384.28;;;19.12;52.63
20027;BME280;10174;42.688;23.344;2023-07-28T07:13:20;95379.16;;;19.19;52.28
20027;BME280;10174;42.688;23.344;2023-07-28T07:15:45;95391.19;;;19.36;52.12
20027;BME280;10174;42.688;23.344;2023-07-28T07:18:11;95400.50;;;19.44;52.29
20027;BME280;10174;42.688;23.344;2023-07-28T07:20:37;95394.47;;;19.64;52.30
20027;BME280;10174;42.688;23.344;2023-07-28T07:23:04;95398.66;;;19.88;51.88
20027;BME280;10174;42.688;23.344;2023-07-28T07:25:29;95383.91;;;20.15;49.72
20027;BME280;10174;42.688;23.344;2023-07-28T07:27:55;95412.75;;;20.42;49.66
20027;BME280;10174;42.688;23.344;2023-07-28T07:30:21;95307.91;;;19.61;49.90
20027;BME280;10174;42.688;23.344;2023-07-28T07:32:46;95406.19;;;20.26;49.66
20027;BME280;10174;42.688;23.344;2023-07-28T07:35:11;95403.31;;;20.31;48.80
20027;BME280;10174;42.688;23.344;2023-07-28T07:37:38;95365.00;;;20.01;48.57
20027;BME280;10174;42.688;23.344;2023-07-28T07:40:04;95413.09;;;20.32;49.17
20027;BME280;10174;42.688;23.344;2023-07-28T07:42:41;95413.03;;;20.58;48.00
20027;BME280;10174;42.688;23.344;2023-07-28T07:45:09;95417.09;;;21.08;46.87
20027;BME280;10174;42.688;23.344;2023-07-28T07:47:35;95415.84;;;20.97;47.33
20027;BME280;10174;42.688;23.344;2023-07-28T07:50:00;95405.22;;;21.04;46.75
20027;BME280;10174;42.688;23.344;2023-07-28T07:52:26;95348.59;;;20.36;47.28
20027;BME280;10174;42.688;23.344;2023-07-28T07:54:51;95408.44;;;21.06;47.25
20027;BME280;10174;42.688;23.344;2023-07-28T07:57:17;95398.00;;;20.99;46.66
20027;BME280;10174;42.688;23.344;2023-07-28T07:59:43;95417.09;;;21.08;46.75
20027;BME280;10174;42.688;23.344;2023-07-28T08:02:08;95407.69;;;21.27;46.38
20027;BME280;10174;42.688;23.344;2023-07-28T08:04:34;95353.16;;;21.09;45.16
20027;BME280;10174;42.688;23.344;2023-07-28T08:07:01;95409.00;;;21.21;45.71
20027;BME280;10174;42.688;23.344;2023-07-28T08:09:29;95416.81;;;21.31;45.91
20027;BME280;10174;42.688;23.344;2023-07-28T08:11:55;95399.25;;;21.41;45.65
20027;BME280;10174;42.688;23.344;2023-07-28T08:14:20;95393.66;;;21.67;44.61
20027;BME280;10174;42.688;23.344;2023-07-28T08:16:46;95381.91;;;22.30;43.19
20027;BME280;10174;42.688;23.344;2023-07-28T08:19:11;95376.81;;;22.99;42.20
20027;BME280;10174;42.688;23.344;2023-07-28T08:21:37;95361.00;;;23.17;40.39
20027;BME280;10174;42.688;23.344;2023-07-28T08:24:03;95387.63;;;22.83;41.97
20027;BME280;10174;42.688;23.344;2023-07-28T08:26:29;95367.41;;;22.63;42.15
20027;BME280;10174;42.688;23.344;2023-07-28T08:28:55;95390.00;;;22.72;41.56
20027;BME280;10174;42.688;23.344;2023-07-28T08:31:20;95394.22;;;23.15;41.24
20027;BME280;10174;42.688;23.344;2023-07-28T08:33:46;95389.63;;;23.44;40.91
20027;BME280;10174;42.688;23.344;2023-07-28T08:36:11;95391.13;;;23.54;40.56
20027;BME280;10174;42.688;23.344;2023-07-28T08:38:36;95363.94;;;23.36;41.15
20027;BME280;10174;42.688;23.344;2023-07-28T08:41:02;95384.13;;;23.69;40.32
20027;BME280;10174;42.688;23.344;2023-07-28T08:43:28;95350.81;;;24.23;39.66
20027;BME280;10174;42.688;23.344;2023-07-28T08:45:53;95389.59;;;25.26;37.71
20027;BME280;10174;42.688;23.344;2023-07-28T08:48:20;95369.34;;;26.64;35.43
20027;BME280;10174;42.688;23.344;2023-07-28T08:50:46;95379.00;;;27.43;34.35
20027;BME280;10174;42.688;23.344;2023-07-28T08:53:12;95363.41;;;27.81;32.95
20027;BME280;10174;42.688;23.344;2023-07-28T08:55:37;95367.31;;;28.41;31.67
20027;BME280;10174;42.688;23.344;2023-07-28T08:58:22;95372.78;;;30.31;29.33
20027;BME280;10174;42.688;23.344;2023-07-28T09:00:49;95298.03;;;31.82;27.23
20027;BME280;10174;42.688;23.344;2023-07-28T09:03:15;95343.66;;;34.16;24.32
20027;BME280;10174;42.688;23.344;2023-07-28T09:05:45;95350.47;;;33.77;24.75
20027;BME280;10174;42.688;23.344;2023-07-28T09:08:15;95341.94;;;33.53;24.38
20027;BME280;10174;42.688;23.344;2023-07-28T09:10:48;95342.59;;;33.65;24.32
20027;BME280;10174;42.688;23.344;2023-07-28T09:13:16;95317.41;;;32.14;26.24
20027;BME280;10174;42.688;23.344;2023-07-28T09:15:42;95324.13;;;32.17;26.09
20027;BME280;10174;42.688;23.344;2023-07-28T09:18:11;95327.34;;;33.35;25.26
20027;BME280;10174;42.688;23.344;2023-07-28T09:20:39;95322.56;;;33.39;24.98
20027;BME280;10174;42.688;23.344;2023-07-28T09:23:05;95302.13;;;33.11;24.51
20027;BME280;10174;42.688;23.344;2023-07-28T09:25:31;95314.66;;;35.50;22.45
20027;BME280;10174;42.688;23.344;2023-07-28T09:27:57;95313.03;;;35.53;22.76
20027;BME280;10174;42.688;23.344;2023-07-28T09:30:24;95299.75;;;37.76;20.20
20027;BME280;10174;42.688;23.344;2023-07-28T09:32:52;95282.03;;;38.08;19.75
20027;BME280;10174;42.688;23.344;2023-07-28T09:35:19;95276.06;;;36.09;21.54
20027;BME280;10174;42.688;23.344;2023-07-28T09:37:46;95290.13;;;33.98;23.25
20027;BME280;10174;42.688;23.344;2023-07-28T09:40:20;95283.84;;;33.55;23.93
20027;BME280;10174;42.688;23.344;2023-07-28T09:42:48;95287.03;;;33.92;23.64
20027;BME280;10174;42.688;23.344;2023-07-28T09:45:20;95269.69;;;34.70;23.02
20027;BME280;10174;42.688;23.344;2023-07-28T09:47:47;95277.97;;;35.92;21.91
20027;BME280;10174;42.688;23.344;2023-07-28T09:50:17;95248.09;;;34.77;22.58
20027;BME280;10174;42.688;23.344;2023-07-28T09:52:46;95273.63;;;36.31;21.34
20027;BME280;10174;42.688;23.344;2023-07-28T09:55:11;95160.91;;;34.97;22.25
20027;BME280;10174;42.688;23.344;2023-07-28T09:57:50;95264.91;;;34.12;22.97
20027;BME280;10174;42.688;23.344;2023-07-28T10:00:17;95274.53;;;34.38;22.89
20027;BME280;10174;42.688;23.344;2023-07-28T10:02:44;95174.16;;;33.11;23.43
20027;BME280;10174;42.688;23.344;2023-07-28T10:05:11;95244.91;;;34.17;23.08
20027;BME280;10174;42.688;23.344;2023-07-28T10:07:39;95236.50;;;33.90;23.51
20027;BME280;10174;42.688;23.344;2023-07-28T10:10:05;95249.44;;;33.73;23.22
20027;BME280;10174;42.688;23.344;2023-07-28T10:13:02;95257.41;;;32.88;23.40
20027;BME280;10174;42.688;23.344;2023-07-28T10:15:30;95263.38;;;32.86;23.91
20027;BME280;10174;42.688;23.344;2023-07-28T10:17:56;95258.03;;;32.54;24.48
20027;BME280;10174;42.688;23.344;2023-07-28T10:20:37;95251.84;;;32.88;24.30
20027;BME280;10174;42.688;23.344;2023-07-28T10:25:32;95209.44;;;33.22;23.88
20027;BME280;10174;42.688;23.344;2023-07-28T10:27:59;95247.94;;;33.27;23.88
20027;BME280;10174;42.688;23.344;2023-07-28T10:30:24;95172.41;;;32.87;23.95
20027;BME280;10174;42.688;23.344;2023-07-28T10:32:50;95240.88;;;33.57;24.10
20027;BME280;10174;42.688;23.344;2023-07-28T10:37:44;95223.41;;;34.76;22.89
20027;BME280;10174;42.688;23.344;2023-07-28T10:40:26;95225.72;;;34.54;22.68
20027;BME280;10174;42.688;23.344;2023-07-28T10:42:53;95223.13;;;35.81;21.95
20027;BME280;10174;42.688;23.344;2023-07-28T10:45:19;95228.22;;;35.43;21.83
20027;BME280;10174;42.688;23.344;2023-07-28T10:47:45;95219.13;;;34.68;22.60
20027;BME280;10174;42.688;23.344;2023-07-28T10:50:13;95134.84;;;34.33;22.45
20027;BME280;10174;42.688;23.344;2023-07-28T10:52:42;95211.88;;;34.19;22.88
20027;BME280;10174;42.688;23.344;2023-07-28T10:55:18;95226.13;;;33.60;23.49
20027;BME280;10174;42.688;23.344;2023-07-28T10:57:46;95214.44;;;33.76;23.05
20027;BME280;10174;42.688;23.344;2023-07-28T11:00:13;95202.63;;;33.61;23.29
20027;BME280;10174;42.688;23.344;2023-07-28T11:02:51;95211.97;;;33.01;23.88
20027;BME280;10174;42.688;23.344;2023-07-28T11:05:27;95203.88;;;33.22;23.67
20027;BME280;10174;42.688;23.344;2023-07-28T11:07:58;95123.31;;;33.76;23.29
20027;BME280;10174;42.688;23.344;2023-07-28T11:10:25;95199.72;;;34.60;22.46
20027;BME280;10174;42.688;23.344;2023-07-28T11:12:53;95187.03;;;35.07;22.06
20027;BME280;10174;42.688;23.344;2023-07-28T11:15:19;95134.34;;;34.65;22.18
20027;BME280;10174;42.688;23.344;2023-07-28T11:17:48;95115.38;;;34.02;22.99
20027;BME280;10174;42.688;23.344;2023-07-28T11:20:21;95177.75;;;34.39;22.67
20027;BME280;10174;42.688;23.344;2023-07-28T11:22:53;95157.38;;;32.77;24.42
20027;BME280;10174;42.688;23.344;2023-07-28T11:25:19;95159.38;;;34.14;22.92
20027;BME280;10174;42.688;23.344;2023-07-28T11:27:46;95170.78;;;34.23;22.99
20027;BME280;10174;42.688;23.344;2023-07-28T11:30:12;95184.22;;;33.74;23.37
20027;BME280;10174;42.688;23.344;2023-07-28T11:32:38;95160.84;;;35.21;22.50
20027;BME280;10174;42.688;23.344;2023-07-28T11:35:09;95083.25;;;36.58;20.04
20027;BME280;10174;42.688;23.344;2023-07-28T11:37:36;95150.31;;;35.52;21.36
20027;BME280;10174;42.688;23.344;2023-07-28T11:40:03;95147.16;;;33.08;24.04
20027;BME280;10174;42.688;23.344;2023-07-28T11:42:33;95138.41;;;32.16;25.14
20027;BME280;10174;42.688;23.344;2023-07-28T11:44:59;95083.75;;;31.28;26.32
20027;BME280;10174;42.688;23.344;2023-07-28T11:47:25;95139.91;;;31.50;26.62
20027;BME280;10174;42.688;23.344;2023-07-28T11:49:50;95144.41;;;30.97;26.55
20027;BME280;10174;42.688;23.344;2023-07-28T11:52:17;95139.34;;;30.41;26.16
20027;BME280;10174;42.688;23.344;2023-07-28T11:54:43;95147.22;;;29.99;27.32
20027;BME280;10174;42.688;23.344;2023-07-28T11:57:09;95117.03;;;29.65;27.25
20027;BME280;10174;42.688;23.344;2023-07-28T11:59:35;95140.06;;;29.88;27.09
20027;BME280;10174;42.688;23.344;2023-07-28T12:02:02;95051.22;;;28.98;28.06
20027;BME280;10174;42.688;23.344;2023-07-28T12:04:31;95140.19;;;29.21;28.17
20027;BME280;10174;42.688;23.344;2023-07-28T12:07:06;95135.97;;;29.42;27.37
20027;BME280;10174;42.688;23.344;2023-07-28T12:09:52;95131.28;;;29.57;27.56
20027;BME280;10174;42.688;23.344;2023-07-28T12:12:20;95128.41;;;29.31;27.80
20027;BME280;10174;42.688;23.344;2023-07-28T12:14:46;95139.69;;;28.98;28.31
20027;BME280;10174;42.688;23.344;2023-07-28T12:17:23;95125.63;;;29.24;27.80
20027;BME280;10174;42.688;23.344;2023-07-28T12:20:05;95049.47;;;28.60;28.07
20027;BME280;10174;42.688;23.344;2023-07-28T12:22:41;95131.78;;;29.00;28.64
20027;BME280;10174;42.688;23.344;2023-07-28T12:25:07;95110.94;;;28.54;29.21
20027;BME280;10174;42.688;23.344;2023-07-28T12:27:34;95114.69;;;28.76;29.45
20027;BME280;10174;42.688;23.344;2023-07-28T12:30:00;95097.94;;;28.54;28.90
20027;BME280;10174;42.688;23.344;2023-07-28T12:32:26;95126.69;;;29.02;29.22
20027;BME280;10174;42.688;23.344;2023-07-28T12:34:52;95107.22;;;28.84;28.95
20027;BME280;10174;42.688;23.344;2023-07-28T12:37:18;95115.78;;;28.60;29.40
20027;BME280;10174;42.688;23.344;2023-07-28T12:39:43;95107.56;;;28.75;29.10
20027;BME280;10174;42.688;23.344;2023-07-28T12:42:10;95085.78;;;28.63;30.12
20027;BME280;10174;42.688;23.344;2023-07-28T12:44:36;95090.69;;;28.98;30.05
20027;BME280;10174;42.688;23.344;2023-07-28T12:47:02;95089.19;;;29.08;29.51
20027;BME280;10174;42.688;23.344;2023-07-28T12:49:29;95089.06;;;28.83;30.14
20027;BME280;10174;42.688;23.344;2023-07-28T12:51:55;95090.75;;;29.09;29.95
20027;BME280;10174;42.688;23.344;2023-07-28T12:54:22;95095.44;;;28.98;30.06